Lyman, WA (98263)

11:48 PM PDT on September 19, 2014 (GMT -0700)
Lyman, WA | Change Station
CLOSE
Current Station
Personal Weather Station
Location: Sedro Woolley, WA
Elevation: 476 ft
Nearby Weather Stations

Elev 476 ft 48.54 °N, 122.08 °W | Updated 23 minutes ago

Partly Cloudy
Partly Cloudy
58.0 °F
Feels Like 58.0 °F
N
0.0
Wind Variable Wind from East
Gusts 0.0 mph

Today
High -- | Low -- °F
--% Chance of Precip.
Yesterday
High -- | Low -- °F
Precip. -- in
6:50 AM 7:12 PM
Waning Crescent, 14% visible
Pressure 30.14 in
Visibility 10.0 miles
Clouds Overcast 4800 ft
Dew Point 57 °F
Humidity 97%
Rainfall 0.09 in
Snow Depth 0 in , 0 in , 1 in
UV 0 out of 12
Pollen .70 out of 12
PM2.5 Good
Flu Activity Not available.
METAR KBVS 200635Z AUTO 00000KT 10SM OVC048 17/16 A3014 RMK A01 P000

More Conditions Fewer Conditions

Pressure 30.14 in
Visibility 10.0 miles
Clouds Overcast 4800 ft
Dew Point 57 °F
Humidity 97%
Rainfall 0.09 in
Snow Depth 0 in , 0 in , 1 in
UV 0 out of 12
Pollen .70 out of 12
PM2.5 Good
Flu Activity Not available.
METAR KBVS 200635Z AUTO 00000KT 10SM OVC048 17/16 A3014 RMK A01 P000

More Conditions Fewer Conditions

10-Day Weather Forecast

Almanac

Astronomy

Sep. 19, 2014 Rise Set
Actual Time 6:50 AM PDT 7:12 PM PDT
Civil Twilight 6:19 AM PDT 7:43 PM PDT
Nautical Twilight 5:42 AM PDT 8:20 PM PDT
Astronomical Twilight 5:03 AM PDT 8:59 PM PDT
Moon 2:24 AM PDT (9/19) 4:58 PM PDT (9/19)
Length of Visible Light 13h 24m
Length of Day
12h 21m
Tomorrow will be 3m 31s shorter.
Waning Crescent, 14% of the Moon is Illuminated
Sep 20
Waning Crescent
Sep 24
New
Oct 1
First Quarter
Oct 8
Full
Oct 15
Last Quarter

Community

WunderPhotos

Upload Photos

1,754,779 photos uploaded!

WunderBlogs® & News

Nearby

Air Quality

  Air Quality AQ Index Pollutant
Yesterday Good
PM2.5
Current Good
PM2.5
Friday Good
PM2.5
Friday Good
OZONE
Saturday Good
PM2.5
Saturday Good
OZONE
Sunday Good
PM2.5
Sunday Good
OZONE
Monday Good
OZONE
Monday Good
PM2.5
Tuesday Good
OZONE
Tuesday Good
PM2.5

Snow Depth

Station Depth Elevation
Spencer Meadow 0 in 3400 ft
Green Lake 0 in 6000 ft
Moses Mountain 1 in 5300 ft
Quartz Peak 1 in 4700 ft
Surprise Lakes 1 in 4250 ft

Earthquake Activity

City Distance Mag. Time & Date
Seabeck, Washington 79 miles 4.0 3:06 AM PDT
2014-09-17
Minimum magnitude displayed is 2.5.

Coastal Water Temperatures

Place Temperature
Port Townsend, WA 53.1 °F
Friday Harbor, WA 52.0 °F
Port Angeles, WA 53.1 °F

Nearby Weather Stations